Pagrindinis puslapis
METAR-TAF:

METAR-TAF

Oro uostai :

Coatesville, Pensilvanija, Jungtinės Amerikos Valstijos

platuma: 39-58-44N, ilguma: 075-51-56W, Aukštis: 201 m

Dabartinis oras

Ataskaita buvo paskelbta 30 minutes, ne 05:55 UTC
Vėjas 7 kt iš Vakarų su gūsio iki 16 kt, svyruoja nuo Vakarų/Pietvakarių ir Vakarų/Šiaurės Vakarų
Temperatūra -2°C
Drėgmė 59%
Slėgis 1012 hPa
Matomumas: 16.1 km
Mažai debesys ne aukštis 4800 ft
Mažai debesys ne aukštis 5500 ft

METAR: KMQS 280555Z AUTO 27007G16KT 240V300 10SM FEW048 FEW055 M02/M09 A2988 RMK AO2

Laikas: 01:25 (06:25 UTC)


TAF: trūkstamas

Orai ataskaitas ir orų prognozės (METAR, TAF).

turimą stotys yra geltonos ir raudonos taškus žemėlapyje.

Perkelti pele per norėdami pamatyti stoties vardą.

Tada spustelėkite, norėdami matyti oro stebėjimo ir prognozės.

Norėdami pakeisti žemėlapį: spustelėkite ant žalios mygtukų su juodo kryžiaus žemyn,; žalią mygtuką su brūkšneliu, jei norite nutolinti; arba žalių rodyklių gretimoms žemėlapius.


METAR-TAF: